Time;durP1;ratioP1;P1;durP2;ratioP2;P2;SDS_P1;SDS_P2;PMS_P1;PMS_P2;Temp;Humidity;BMP_temperature;BMP_pressure;BME280_temperature;BME280_humidity;BME280_pressure;Samples;Min_cycle;Max_cycle;Signal;HPM_P1;HPM_P2
2022/03/16 00:01:32;;;;;;;25.58;19.95;;;;;;;;;;4688140;28;10000477;-68
2022/03/16 00:03:58;;;;;;;37.72;19.63;;;;;;;;;;5056314;28;20345;-68
2022/03/16 00:06:24;;;;;;;22.55;18.17;;;;;;;;;;5035307;28;20107;-68
2022/03/16 00:08:50;;;;;;;23.70;17.80;;;;;;;;;;5035863;28;20433;-69
2022/03/16 00:11:16;;;;;;;33.67;17.48;;;;;;;;;;5044409;28;20036;-68
2022/03/16 00:13:43;;;;;;;60.20;16.60;;;;;;;;;;5064017;28;20485;-69
2022/03/16 00:16:09;;;;;;;21.88;15.45;;;;;;;;;;5037873;28;20485;-69
2022/03/16 00:18:34;;;;;;;19.35;15.75;;;;;;;;;;5061039;28;20031;-68
2022/03/16 00:21:01;;;;;;;18.98;14.80;;;;;;;;;;5044507;28;20127;-69
2022/03/16 00:23:27;;;;;;;19.00;15.10;;;;;;;;;;5042433;28;20479;-68
2022/03/16 00:25:53;;;;;;;17.70;14.90;;;;;;;;;;5041831;28;20527;-69
2022/03/16 00:28:19;;;;;;;21.40;14.65;;;;;;;;;;5045250;28;20462;-68
2022/03/16 00:30:45;;;;;;;30.38;15.77;;;;;;;;;;5040007;28;20039;-68
2022/03/16 00:33:11;;;;;;;17.70;15.35;;;;;;;;;;5038800;28;20033;-68
2022/03/16 00:35:38;;;;;;;21.60;16.20;;;;;;;;;;5039680;28;20029;-68
2022/03/16 00:38:04;;;;;;;31.48;17.73;;;;;;;;;;5040620;28;20095;-68
2022/03/16 00:40:32;;;;;;;25.58;17.02;;;;;;;;;;5043126;28;20074;-69
2022/03/16 00:42:58;;;;;;;21.83;17.52;;;;;;;;;;5042677;28;20029;-69
2022/03/16 00:45:24;;;;;;;45.20;17.70;;;;;;;;;;5038968;28;20148;-69
2022/03/16 00:47:50;;;;;;;26.83;18.15;;;;;;;;;;5044123;28;20041;-68
2022/03/16 00:50:17;;;;;;;55.00;20.35;;;;;;;;;;5043742;28;20089;-69
2022/03/16 00:52:43;;;;;;;37.50;18.80;;;;;;;;;;5027979;28;20056;-69
2022/03/16 00:55:09;;;;;;;22.38;17.35;;;;;;;;;;5027021;28;20033;-69
2022/03/16 00:57:35;;;;;;;25.02;16.10;;;;;;;;;;5031090;28;20326;-69
2022/03/16 01:00:01;;;;;;;25.98;17.98;;;;;;;;;;5029690;28;20090;-69
2022/03/16 01:02:27;;;;;;;20.77;16.05;;;;;;;;;;5034365;28;20028;-69
2022/03/16 01:04:53;;;;;;;21.92;15.32;;;;;;;;;;5027386;28;20066;-69
2022/03/16 01:07:19;;;;;;;21.55;14.77;;;;;;;;;;5036700;28;20055;-69
2022/03/16 01:09:45;;;;;;;20.02;15.10;;;;;;;;;;5047768;28;20029;-69
2022/03/16 01:12:11;;;;;;;36.45;14.70;;;;;;;;;;5032674;28;20632;-69
2022/03/16 01:14:37;;;;;;;25.58;13.55;;;;;;;;;;5030953;28;20049;-69
2022/03/16 01:17:04;;;;;;;17.73;14.30;;;;;;;;;;5030707;28;20472;-69
2022/03/16 01:19:31;;;;;;;39.53;13.60;;;;;;;;;;5030474;28;20025;-69
2022/03/16 01:21:57;;;;;;;27.23;13.82;;;;;;;;;;5035779;28;20039;-69
2022/03/16 01:24:23;;;;;;;24.77;14.63;;;;;;;;;;5032139;28;20034;-69
2022/03/16 01:26:49;;;;;;;28.45;14.07;;;;;;;;;;5041049;28;20040;-69
2022/03/16 01:29:15;;;;;;;23.40;14.23;;;;;;;;;;5031875;28;20126;-69
2022/03/16 01:31:41;;;;;;;27.30;14.05;;;;;;;;;;5035172;28;20085;-69
2022/03/16 01:34:07;;;;;;;20.92;14.20;;;;;;;;;;5034279;28;20484;-69
2022/03/16 01:36:33;;;;;;;17.77;14.27;;;;;;;;;;5040674;28;20025;-68
2022/03/16 01:38:59;;;;;;;17.35;13.13;;;;;;;;;;5033604;28;20033;-69
2022/03/16 01:41:25;;;;;;;19.38;13.82;;;;;;;;;;5040399;28;20458;-68
2022/03/16 01:43:54;;;;;;;26.48;13.80;;;;;;;;;;5041458;28;20033;-68
2022/03/16 01:46:21;;;;;;;22.60;14.73;;;;;;;;;;5043959;28;20080;-68
2022/03/16 01:48:47;;;;;;;23.23;14.70;;;;;;;;;;5040222;28;20033;-68
2022/03/16 01:51:13;;;;;;;32.25;15.55;;;;;;;;;;5036231;28;20107;-68
2022/03/16 01:53:42;;;;;;;40.88;17.05;;;;;;;;;;5038210;28;20032;-68
2022/03/16 01:56:11;;;;;;;46.65;16.35;;;;;;;;;;5032142;28;20383;-68
2022/03/16 01:58:37;;;;;;;38.20;16.58;;;;;;;;;;5036712;28;20464;-68
2022/03/16 02:01:03;;;;;;;24.85;17.58;;;;;;;;;;5040914;28;20421;-68
2022/03/16 02:03:29;;;;;;;24.52;16.77;;;;;;;;;;5033760;28;20016;-68
2022/03/16 02:05:55;;;;;;;22.80;17.45;;;;;;;;;;5048236;28;20028;-68
2022/03/16 02:08:21;;;;;;;51.78;16.13;;;;;;;;;;5041611;28;20361;-68
2022/03/16 02:10:47;;;;;;;21.25;15.95;;;;;;;;;;5050218;28;20029;-68
2022/03/16 02:13:13;;;;;;;28.27;16.55;;;;;;;;;;5046119;28;20036;-68
2022/03/16 02:15:40;;;;;;;21.08;16.35;;;;;;;;;;5026567;28;20086;-69
2022/03/16 02:18:06;;;;;;;24.20;16.13;;;;;;;;;;5037768;28;20025;-69
2022/03/16 02:20:32;;;;;;;30.60;15.57;;;;;;;;;;5037575;28;20025;-69
2022/03/16 02:23:08;;;;;;;20.33;15.50;;;;;;;;;;5041358;28;20067;-68
2022/03/16 02:25:47;;;;;;;22.08;15.73;;;;;;;;;;5032868;28;20477;-68
2022/03/16 02:28:13;;;;;;;21.50;16.10;;;;;;;;;;5040337;28;20076;-69
2022/03/16 02:30:39;;;;;;;21.73;15.13;;;;;;;;;;5037982;28;20103;-68
2022/03/16 02:33:05;;;;;;;20.98;15.35;;;;;;;;;;5033742;28;20090;-69
2022/03/16 02:35:31;;;;;;;20.63;15.77;;;;;;;;;;5036336;28;20040;-69
2022/03/16 02:37:58;;;;;;;21.00;15.90;;;;;;;;;;5036287;28;20025;-68
2022/03/16 02:40:24;;;;;;;18.67;14.93;;;;;;;;;;5038235;28;20108;-69
2022/03/16 02:42:50;;;;;;;19.67;15.32;;;;;;;;;;5030134;28;20527;-69
2022/03/16 02:45:17;;;;;;;18.65;14.90;;;;;;;;;;5038993;28;20036;-69
2022/03/16 02:47:44;;;;;;;18.98;14.95;;;;;;;;;;5039941;28;20057;-69
2022/03/16 02:50:10;;;;;;;17.58;14.07;;;;;;;;;;5034707;28;20496;-69
2022/03/16 02:52:37;;;;;;;19.88;14.85;;;;;;;;;;5038434;28;20052;-68
2022/03/16 02:55:03;;;;;;;20.92;15.85;;;;;;;;;;5033871;28;20029;-68
2022/03/16 02:57:29;;;;;;;20.52;15.73;;;;;;;;;;5031209;28;20180;-68
2022/03/16 02:59:55;;;;;;;21.55;16.58;;;;;;;;;;5032440;28;20124;-68
2022/03/16 03:02:21;;;;;;;23.67;16.80;;;;;;;;;;5038650;28;20115;-68
2022/03/16 03:04:47;;;;;;;20.30;16.27;;;;;;;;;;5032054;28;20061;-68
2022/03/16 03:07:13;;;;;;;24.30;17.08;;;;;;;;;;5031102;28;20626;-68
2022/03/16 03:09:39;;;;;;;24.40;16.95;;;;;;;;;;5031557;28;20033;-68
2022/03/16 03:12:06;;;;;;;32.47;19.13;;;;;;;;;;5043424;28;20036;-68
2022/03/16 03:14:32;;;;;;;28.23;17.77;;;;;;;;;;5034161;28;20200;-68
2022/03/16 03:16:58;;;;;;;23.67;18.80;;;;;;;;;;5036670;28;20124;-68
2022/03/16 03:19:24;;;;;;;24.77;18.45;;;;;;;;;;5035121;28;20033;-68
2022/03/16 03:21:50;;;;;;;22.48;17.05;;;;;;;;;;5036263;28;20029;-68
2022/03/16 03:24:16;;;;;;;25.13;17.10;;;;;;;;;;5037902;28;20032;-69
2022/03/16 03:26:42;;;;;;;24.90;18.17;;;;;;;;;;5033945;28;20037;-68
2022/03/16 03:29:08;;;;;;;49.30;19.35;;;;;;;;;;5036180;28;20076;-68
2022/03/16 03:31:34;;;;;;;36.38;18.75;;;;;;;;;;5036537;28;20040;-68
2022/03/16 03:34:01;;;;;;;55.22;19.75;;;;;;;;;;5037519;28;20663;-68
2022/03/16 03:36:27;;;;;;;26.42;19.30;;;;;;;;;;5034162;28;20119;-68
2022/03/16 03:38:54;;;;;;;23.33;17.50;;;;;;;;;;5032978;28;20037;-68
2022/03/16 03:41:20;;;;;;;26.20;19.05;;;;;;;;;;5030314;28;20021;-68
2022/03/16 03:43:46;;;;;;;27.05;19.02;;;;;;;;;;5038997;28;20699;-68
2022/03/16 03:46:11;;;;;;;29.30;18.80;;;;;;;;;;5035831;28;20059;-68
2022/03/16 03:48:38;;;;;;;29.30;20.08;;;;;;;;;;5032843;28;20183;-68
2022/03/16 03:51:04;;;;;;;28.85;19.50;;;;;;;;;;5024990;28;20037;-68
2022/03/16 03:53:30;;;;;;;36.53;20.80;;;;;;;;;;5031874;28;20029;-69
2022/03/16 03:55:56;;;;;;;27.33;19.33;;;;;;;;;;5034514;28;20033;-68
2022/03/16 03:58:22;;;;;;;27.67;19.13;;;;;;;;;;5042155;28;20281;-68
2022/03/16 04:00:49;;;;;;;39.13;18.17;;;;;;;;;;5038902;28;20043;-69
2022/03/16 04:03:15;;;;;;;49.03;17.17;;;;;;;;;;5036413;28;20048;-69
2022/03/16 04:05:41;;;;;;;26.63;15.98;;;;;;;;;;5038417;28;20037;-68
2022/03/16 04:08:07;;;;;;;27.02;15.98;;;;;;;;;;5035382;28;20040;-69
2022/03/16 04:10:36;;;;;;;34.47;15.82;;;;;;;;;;5032638;28;20082;-68
2022/03/16 04:13:02;;;;;;;59.58;16.13;;;;;;;;;;5041146;28;20563;-69
2022/03/16 04:15:28;;;;;;;61.08;16.52;;;;;;;;;;5035947;28;20481;-69
2022/03/16 04:17:54;;;;;;;50.20;16.23;;;;;;;;;;5038571;28;20111;-69
2022/03/16 04:20:20;;;;;;;65.75;16.65;;;;;;;;;;5027732;28;20064;-69
2022/03/16 04:22:46;;;;;;;43.50;16.38;;;;;;;;;;5047732;28;20082;-69
2022/03/16 04:25:12;;;;;;;21.58;15.43;;;;;;;;;;5036642;28;20030;-68
2022/03/16 04:27:38;;;;;;;20.88;15.52;;;;;;;;;;5035531;28;20052;-68
2022/03/16 04:30:05;;;;;;;25.83;15.82;;;;;;;;;;5034086;28;20035;-69
2022/03/16 04:32:31;;;;;;;34.50;17.67;;;;;;;;;;5032973;28;20395;-68
2022/03/16 04:34:57;;;;;;;31.98;17.10;;;;;;;;;;5031219;28;20025;-68
2022/03/16 04:37:23;;;;;;;23.85;17.42;;;;;;;;;;5038911;28;20393;-68
2022/03/16 04:39:49;;;;;;;33.88;17.23;;;;;;;;;;5043560;28;20025;-68
2022/03/16 04:42:15;;;;;;;39.75;17.38;;;;;;;;;;5034910;28;20021;-68
2022/03/16 04:44:41;;;;;;;28.35;16.80;;;;;;;;;;5031962;28;20512;-68
2022/03/16 04:47:07;;;;;;;43.60;17.05;;;;;;;;;;5032659;28;20064;-68
2022/03/16 04:49:33;;;;;;;29.50;16.40;;;;;;;;;;5031984;28;20498;-68
2022/03/16 04:51:59;;;;;;;51.10;17.42;;;;;;;;;;5030058;28;20029;-68
2022/03/16 04:54:25;;;;;;;82.97;18.23;;;;;;;;;;5037432;28;20033;-68
2022/03/16 04:56:51;;;;;;;113.15;18.35;;;;;;;;;;5034522;28;20041;-69
2022/03/16 04:59:17;;;;;;;97.05;18.58;;;;;;;;;;5037940;28;20056;-69
2022/03/16 05:01:44;;;;;;;115.25;19.25;;;;;;;;;;5030810;28;20444;-68
2022/03/16 05:04:10;;;;;;;105.00;18.15;;;;;;;;;;5030281;28;20094;-68
2022/03/16 05:06:36;;;;;;;103.28;19.15;;;;;;;;;;5037810;28;20033;-68
2022/03/16 05:09:02;;;;;;;111.05;20.30;;;;;;;;;;5052205;28;20063;-68
2022/03/16 05:11:28;;;;;;;114.38;20.55;;;;;;;;;;5039642;28;20525;-68
2022/03/16 05:13:54;;;;;;;116.07;20.00;;;;;;;;;;5038609;28;20488;-68
2022/03/16 05:16:20;;;;;;;210.80;21.90;;;;;;;;;;5034913;28;20475;-68
2022/03/16 05:18:46;;;;;;;204.18;21.90;;;;;;;;;;5035344;28;20564;-68
2022/03/16 05:21:12;;;;;;;281.98;20.88;;;;;;;;;;5044389;28;20104;-68
2022/03/16 05:23:40;;;;;;;256.10;24.17;;;;;;;;;;5028004;28;20031;-68
2022/03/16 05:26:06;;;;;;;253.10;22.17;;;;;;;;;;5030838;28;20038;-67
2022/03/16 05:28:32;;;;;;;288.50;22.67;;;;;;;;;;5029124;28;20160;-67
2022/03/16 05:30:58;;;;;;;140.00;19.75;;;;;;;;;;5034642;28;20044;-68
2022/03/16 05:33:24;;;;;;;177.55;19.42;;;;;;;;;;5027243;28;20080;-67
2022/03/16 05:35:51;;;;;;;246.93;21.63;;;;;;;;;;5028551;28;20036;-67
2022/03/16 05:38:17;;;;;;;175.50;20.48;;;;;;;;;;5032267;28;20036;-68
2022/03/16 05:40:43;;;;;;;298.55;23.65;;;;;;;;;;5032792;28;20120;-67
2022/03/16 05:43:10;;;;;;;210.30;21.60;;;;;;;;;;5031319;28;20018;-67
2022/03/16 05:45:36;;;;;;;234.68;22.10;;;;;;;;;;5026050;28;20033;-68
2022/03/16 05:48:02;;;;;;;235.00;22.30;;;;;;;;;;5033913;28;20060;-68
2022/03/16 05:50:29;;;;;;;183.60;20.38;;;;;;;;;;5036228;28;20036;-68
2022/03/16 05:52:58;;;;;;;235.13;20.77;;;;;;;;;;5043718;28;20183;-67
2022/03/16 05:55:24;;;;;;;81.32;18.50;;;;;;;;;;5035487;28;20075;-67
2022/03/16 05:57:50;;;;;;;79.32;18.15;;;;;;;;;;5032648;28;20092;-67
2022/03/16 06:00:17;;;;;;;22.83;16.80;;;;;;;;;;4341096;28;10001309;-68
2022/03/16 06:02:46;;;;;;;86.30;17.85;;;;;;;;;;5042705;28;20127;-67
2022/03/16 06:05:13;;;;;;;47.33;16.38;;;;;;;;;;5036554;28;20044;-67
2022/03/16 06:07:39;;;;;;;21.98;16.27;;;;;;;;;;5041902;28;20043;-68
2022/03/16 06:10:05;;;;;;;30.63;15.85;;;;;;;;;;5043373;28;20241;-67
2022/03/16 06:12:31;;;;;;;19.15;14.27;;;;;;;;;;5043514;28;20029;-67
2022/03/16 06:14:57;;;;;;;22.80;15.35;;;;;;;;;;5044938;28;20630;-67
2022/03/16 06:17:23;;;;;;;20.48;15.05;;;;;;;;;;5036291;28;21826;-67
2022/03/16 06:19:49;;;;;;;20.10;14.95;;;;;;;;;;5037112;28;20067;-68
2022/03/16 06:22:15;;;;;;;61.17;19.90;;;;;;;;;;5045579;28;20067;-67
2022/03/16 06:24:41;;;;;;;49.78;20.65;;;;;;;;;;5039221;28;20036;-67
2022/03/16 06:27:07;;;;;;;25.23;17.88;;;;;;;;;;5040331;28;20497;-68
2022/03/16 06:29:33;;;;;;;26.08;18.23;;;;;;;;;;5039658;28;20102;-67
2022/03/16 06:31:59;;;;;;;25.13;17.58;;;;;;;;;;5028547;28;20373;-68
2022/03/16 06:34:25;;;;;;;49.28;17.27;;;;;;;;;;5022938;28;20052;-68
2022/03/16 06:36:52;;;;;;;40.35;17.23;;;;;;;;;;5017178;28;20032;-68
2022/03/16 06:39:18;;;;;;;32.90;16.88;;;;;;;;;;5012338;28;20030;-67
2022/03/16 06:41:44;;;;;;;51.83;18.65;;;;;;;;;;5017155;28;20022;-67
2022/03/16 06:44:10;;;;;;;38.33;17.80;;;;;;;;;;5024802;28;20512;-67
2022/03/16 06:46:37;;;;;;;41.00;18.42;;;;;;;;;;5017610;28;20029;-72
2022/03/16 06:49:03;;;;;;;69.00;19.67;;;;;;;;;;5017111;28;20117;-73
2022/03/16 06:51:29;;;;;;;56.20;18.63;;;;;;;;;;5023998;28;20033;-71
2022/03/16 06:53:55;;;;;;;39.70;18.77;;;;;;;;;;5028325;28;20025;-70
2022/03/16 06:56:21;;;;;;;41.15;20.05;;;;;;;;;;4324810;28;10000766;-71
2022/03/16 06:58:48;;;;;;;28.38;19.63;;;;;;;;;;5027895;28;20037;-71
2022/03/16 07:01:14;;;;;;;62.33;20.42;;;;;;;;;;5030255;28;20044;-71
2022/03/16 07:03:40;;;;;;;29.33;20.55;;;;;;;;;;5022795;28;20362;-71
2022/03/16 07:06:08;;;;;;;53.05;21.85;;;;;;;;;;5016271;28;20449;-71
2022/03/16 07:08:34;;;;;;;36.13;21.52;;;;;;;;;;5016489;28;20032;-71
2022/03/16 07:11:00;;;;;;;29.66;19.40;;;;;;;;;;4669268;28;10001282;-71
2022/03/16 07:13:26;;;;;;;36.63;20.67;;;;;;;;;;5021039;28;20021;-71
2022/03/16 07:15:52;;;;;;;27.48;19.52;;;;;;;;;;5030656;28;20028;-71
2022/03/16 07:18:19;;;;;;;30.77;20.70;;;;;;;;;;5021405;28;20038;-71
2022/03/16 07:20:47;;;;;;;27.98;19.60;;;;;;;;;;5020337;28;20033;-71
2022/03/16 07:23:14;;;;;;;63.38;20.83;;;;;;;;;;5024355;28;20100;-71
2022/03/16 07:25:41;;;;;;;31.25;20.70;;;;;;;;;;5020009;28;20117;-71
2022/03/16 07:28:08;;;;;;;29.67;20.85;;;;;;;;;;5026822;28;20040;-71
2022/03/16 07:30:34;;;;;;;29.98;20.63;;;;;;;;;;5043986;28;20107;-71
2022/03/16 07:33:01;;;;;;;64.47;22.92;;;;;;;;;;5046017;28;20037;-71
2022/03/16 07:35:27;;;;;;;33.03;22.33;;;;;;;;;;5041012;28;20043;-71
2022/03/16 07:37:54;;;;;;;41.33;21.63;;;;;;;;;;5045455;28;20091;-71
2022/03/16 07:40:20;;;;;;;39.38;26.95;;;;;;;;;;5067688;28;20025;-71
2022/03/16 07:42:47;;;;;;;44.30;21.38;;;;;;;;;;5056699;28;20029;-71
2022/03/16 07:45:18;;;;;;;48.67;25.23;;;;;;;;;;5051298;28;20435;-72
2022/03/16 07:47:44;;;;;;;35.75;22.65;;;;;;;;;;5042908;28;20516;-71
2022/03/16 07:50:10;;;;;;;88.72;24.25;;;;;;;;;;5062722;28;20123;-71
2022/03/16 07:52:37;;;;;;;45.38;22.73;;;;;;;;;;5057305;28;20016;-71
2022/03/16 07:55:03;;;;;;;38.13;21.92;;;;;;;;;;5041066;28;20029;-71
2022/03/16 07:57:29;;;;;;;48.60;21.77;;;;;;;;;;5040127;28;20025;-71
2022/03/16 07:59:56;;;;;;;40.60;22.88;;;;;;;;;;5046353;28;20473;-71
2022/03/16 08:02:22;;;;;;;34.70;24.17;;;;;;;;;;5045054;28;20830;-71
2022/03/16 08:04:48;;;;;;;33.97;22.10;;;;;;;;;;5048246;28;20030;-71
2022/03/16 08:07:14;;;;;;;32.22;22.63;;;;;;;;;;5032870;28;20033;-71
2022/03/16 08:09:40;;;;;;;36.67;23.95;;;;;;;;;;5043208;28;20032;-71
2022/03/16 08:12:06;;;;;;;33.53;21.30;;;;;;;;;;5040180;28;20103;-71
2022/03/16 08:14:32;;;;;;;54.17;22.85;;;;;;;;;;5046029;28;20114;-71
2022/03/16 08:16:58;;;;;;;32.20;22.67;;;;;;;;;;5045099;28;20037;-71
2022/03/16 08:19:24;;;;;;;35.13;23.48;;;;;;;;;;5046433;28;20020;-71
2022/03/16 08:21:50;;;;;;;40.88;23.23;;;;;;;;;;5042559;28;20451;-71
2022/03/16 08:24:17;;;;;;;36.17;22.73;;;;;;;;;;5037323;28;20033;-71
2022/03/16 08:26:43;;;;;;;35.42;23.23;;;;;;;;;;5051204;28;20412;-71
2022/03/16 08:29:09;;;;;;;33.97;23.08;;;;;;;;;;5039917;28;20052;-71
2022/03/16 08:31:35;;;;;;;32.20;21.60;;;;;;;;;;5043167;28;20059;-71
2022/03/16 08:34:02;;;;;;;34.22;22.60;;;;;;;;;;5051241;28;20098;-71
2022/03/16 08:36:28;;;;;;;38.80;22.73;;;;;;;;;;5028863;28;20112;-71
2022/03/16 08:38:54;;;;;;;39.83;24.10;;;;;;;;;;5039552;28;20024;-71
2022/03/16 08:41:20;;;;;;;34.65;21.08;;;;;;;;;;5033918;28;20489;-71
2022/03/16 08:43:47;;;;;;;32.90;22.05;;;;;;;;;;5038309;28;20032;-72
2022/03/16 08:46:13;;;;;;;35.63;21.23;;;;;;;;;;5047350;28;20026;-72
2022/03/16 08:48:39;;;;;;;32.17;21.45;;;;;;;;;;5034411;28;20037;-71
2022/03/16 08:51:08;;;;;;;31.45;20.42;;;;;;;;;;5053091;28;20032;-72
2022/03/16 08:53:34;;;;;;;39.80;21.35;;;;;;;;;;5034132;28;20112;-72
2022/03/16 08:56:01;;;;;;;33.65;21.17;;;;;;;;;;5040992;28;20033;-72
2022/03/16 08:58:27;;;;;;;34.42;23.15;;;;;;;;;;5033613;28;20401;-71
2022/03/16 09:00:53;;;;;;;40.33;23.90;;;;;;;;;;5047756;28;20028;-72
2022/03/16 09:03:19;;;;;;;37.92;23.60;;;;;;;;;;5032636;28;20346;-71
2022/03/16 09:05:46;;;;;;;36.90;22.73;;;;;;;;;;5031015;28;20107;-72
2022/03/16 09:08:12;;;;;;;33.50;22.33;;;;;;;;;;5041691;28;20392;-71
2022/03/16 09:10:38;;;;;;;35.13;21.38;;;;;;;;;;5046811;28;20028;-72
2022/03/16 09:13:04;;;;;;;32.20;21.58;;;;;;;;;;5040506;28;20891;-71
2022/03/16 09:15:31;;;;;;;33.88;22.27;;;;;;;;;;5043719;28;20037;-73
2022/03/16 09:17:57;;;;;;;33.03;22.35;;;;;;;;;;5041496;28;20269;-73
2022/03/16 09:20:23;;;;;;;32.97;22.40;;;;;;;;;;5042200;28;20134;-73
2022/03/16 09:22:49;;;;;;;34.55;23.85;;;;;;;;;;5033993;28;20022;-73
2022/03/16 09:25:15;;;;;;;35.67;24.05;;;;;;;;;;5029155;28;20118;-73
2022/03/16 09:27:41;;;;;;;35.60;23.50;;;;;;;;;;5053488;28;20051;-74
2022/03/16 09:30:07;;;;;;;35.08;23.45;;;;;;;;;;5039996;28;20025;-74
2022/03/16 09:32:33;;;;;;;33.55;23.80;;;;;;;;;;5035297;28;20669;-74
2022/03/16 09:35:00;;;;;;;36.80;24.75;;;;;;;;;;5045263;28;20042;-74
2022/03/16 09:37:26;;;;;;;37.40;25.02;;;;;;;;;;5044173;28;20086;-74
2022/03/16 09:39:52;;;;;;;37.60;24.70;;;;;;;;;;5048658;28;20029;-74
2022/03/16 09:42:22;;;;;;;41.28;25.75;;;;;;;;;;5036912;28;20039;-75
2022/03/16 09:44:51;;;;;;;36.15;24.25;;;;;;;;;;5033152;28;20417;-73
2022/03/16 09:47:18;;;;;;;35.95;24.05;;;;;;;;;;5031963;28;20053;-75
2022/03/16 09:49:44;;;;;;;37.22;24.98;;;;;;;;;;5040710;28;20033;-74
2022/03/16 09:52:10;;;;;;;43.30;26.35;;;;;;;;;;5044110;28;20035;-74
2022/03/16 09:54:36;;;;;;;42.90;25.15;;;;;;;;;;5043757;28;20560;-73
2022/03/16 09:57:02;;;;;;;36.42;24.13;;;;;;;;;;5049793;28;20033;-73
2022/03/16 09:59:29;;;;;;;39.67;24.60;;;;;;;;;;5041023;28;20033;-74
2022/03/16 10:02:11;;;;;;;37.53;24.20;;;;;;;;;;5041934;28;20099;-72
2022/03/16 10:04:38;;;;;;;41.03;24.50;;;;;;;;;;5043808;28;20246;-75
2022/03/16 10:07:05;;;;;;;38.78;24.38;;;;;;;;;;5036313;28;20235;-75
2022/03/16 10:15:04;;;;;;;40.58;25.15;;;;;;;;;;5028140;28;20506;-75
2022/03/16 10:17:45;;;;;;;37.63;25.45;;;;;;;;;;5035209;28;20884;-75
2022/03/16 10:20:23;;;;;;;35.80;23.48;;;;;;;;;;5035068;28;20480;-74
2022/03/16 10:23:18;;;;;;;37.15;23.75;;;7.80;99.90;;;;;;5028271;28;20060;-73
2022/03/16 10:25:52;;;;;;;40.55;25.40;;;8.00;99.90;;;;;;5034064;28;20032;-73
2022/03/16 10:28:22;;;;;;;36.75;24.30;;;8.30;99.90;;;;;;5042015;28;20099;-74
2022/03/16 10:30:55;;;;;;;36.03;23.83;;;8.50;99.90;;;;;;5035142;28;20017;-73
2022/03/16 10:33:22;;;;;;;38.17;24.02;;;8.80;99.90;;;;;;5036819;28;20528;-74
2022/03/16 10:36:10;;;;;;;36.60;23.67;;;9.00;99.90;;;;;;5062980;28;20072;-73
2022/03/16 10:38:52;;;;;;;38.03;23.88;;;9.10;99.90;;;;;;5043642;28;20078;-73
2022/03/16 10:47:09;;;;;;;30.67;21.80;;;9.50;99.90;;;;;;5038213;28;20094;-71
2022/03/16 10:49:34;;;;;;;32.97;22.83;;;9.70;99.90;;;;;;5041943;28;20128;-71
2022/03/16 10:52:09;;;;;;;33.20;22.48;;;9.90;99.90;;;;;;5050152;28;20565;-71
2022/03/16 10:54:36;;;;;;;35.80;22.65;;;10.10;99.90;;;;;;5048847;28;20028;-71
2022/03/16 10:57:03;;;;;;;34.88;22.10;;;10.30;99.90;;;;;;5048501;28;20447;-71
2022/03/16 10:59:32;;;;;;;32.15;21.88;;;10.50;99.90;;;;;;5050701;28;20069;-72
2022/03/16 11:02:05;;;;;;;32.42;22.95;;;;;;;;;;5045983;28;20376;-71
2022/03/16 11:04:32;;;;;;;;;;;10.80;99.90;;;;;;5058656;28;20384;-71
2022/03/16 11:07:00;;;;;;;31.58;21.17;;;10.90;99.90;;;;;;5045842;28;19923;-71
2022/03/16 11:09:26;;;;;;;31.15;21.33;;;11.10;99.90;;;;;;5047682;28;20460;-71
2022/03/16 11:14:37;;;;;;;28.52;20.52;;;11.40;99.90;;;;;;5044247;28;20043;-72
2022/03/16 11:17:03;;;;;;;29.63;21.25;;;11.60;99.90;;;;;;5049052;28;20055;-72
2022/03/16 11:19:29;;;;;;;31.60;21.40;;;11.80;99.90;;;;;;5038240;28;20467;-71
2022/03/16 11:22:13;;;;;;;32.30;20.48;;;11.80;99.90;;;;;;5044398;28;20024;-72
2022/03/16 11:24:41;;;;;;;;;;;11.90;99.90;;;;;;5035134;28;20064;-72
2022/03/16 11:27:23;;;;;;;30.30;21.02;;;12.10;99.90;;;;;;5036737;28;19917;-72
2022/03/16 11:30:12;;;;;;;28.08;18.67;;;12.20;99.90;;;;;;5066254;28;20036;-72
2022/03/16 11:32:40;;;;;;;29.92;19.83;;;12.20;99.90;;;;;;5032986;28;20060;-72
2022/03/16 11:35:13;;;;;;;31.25;19.58;;;12.20;99.90;;;;;;5034532;28;20512;-72
2022/03/16 11:37:40;;;;;;;26.20;18.27;;;12.30;99.90;;;;;;5040683;28;20024;-72
2022/03/16 11:40:14;;;;;;;27.95;18.23;;;12.40;99.90;;;;;;5036349;28;20033;-72
2022/03/16 11:43:00;;;;;;;24.15;17.65;;;12.30;99.90;;;;;;5036697;28;20057;-72
2022/03/16 11:45:38;;;;;;;27.27;17.98;;;12.30;99.90;;;;;;5052299;28;20031;-72
2022/03/16 11:48:31;;;;;;;28.73;17.77;;;12.30;99.90;;;;;;5059762;28;20028;-71
2022/03/16 11:51:08;;;;;;;24.45;17.30;;;12.30;99.90;;;;;;5052403;28;20027;-72
2022/03/16 11:53:57;;;;;;;28.83;18.05;;;12.30;99.90;;;;;;5049463;28;20116;-72
2022/03/16 11:56:29;;;;;;;24.88;16.63;;;12.20;99.90;;;;;;5063530;28;20110;-72
2022/03/16 11:58:56;;;;;;;23.13;16.98;;;12.10;99.90;;;;;;5045726;28;20089;-72
2022/03/16 12:01:28;;;;;;;23.35;17.25;;;12.20;99.90;;;;;;5042167;28;20032;-72
2022/03/16 12:04:14;;;;;;;25.98;17.27;;;12.20;99.90;;;;;;5036114;28;20025;-72
2022/03/16 12:07:02;;;;;;;29.50;18.10;;;12.20;99.90;;;;;;5046927;28;20029;-72
2022/03/16 12:09:39;;;;;;;27.10;17.17;;;12.20;99.90;;;;;;5047480;28;20028;-72
2022/03/16 12:15:19;;;;;;;25.77;17.05;;;12.10;99.90;;;;;;5043121;28;20049;-73
2022/03/16 12:17:54;;;;;;;26.60;17.40;;;12.30;99.90;;;;;;5052176;28;20031;-73
2022/03/16 12:20:30;;;;;;;24.98;17.75;;;12.40;99.90;;;;;;5035926;28;20388;-72
2022/03/16 12:22:58;;;;;;;26.77;17.40;;;12.70;99.90;;;;;;5040029;28;20043;-74
2022/03/16 12:25:27;;;;;;;25.98;17.17;;;12.90;99.90;;;;;;5023277;28;20035;-74
2022/03/16 12:30:41;;;;;;;24.63;16.77;;;13.30;99.90;;;;;;5032087;28;20083;-74
2022/03/16 12:33:09;;;;;;;24.90;17.33;;;13.60;99.90;;;;;;5029831;28;20146;-74
2022/03/16 12:35:36;;;;;;;25.15;17.90;;;13.70;99.90;;;;;;5041021;28;20051;-74
2022/03/16 12:38:02;;;;;;;25.88;16.75;;;13.70;99.90;;;;;;5040226;28;20084;-74
2022/03/16 12:40:29;;;;;;;24.17;16.08;;;13.90;99.90;;;;;;5037856;28;20021;-75
2022/03/16 12:42:58;;;;;;;24.40;17.25;;;14.00;99.90;;;;;;5046483;28;20318;-75
2022/03/16 12:45:28;;;;;;;22.65;16.10;;;14.10;99.90;;;;;;5031042;28;20033;-75
2022/03/16 12:48:10;;;;;;;24.33;17.25;;;14.10;99.90;;;;;;5022402;28;20372;-75
2022/03/16 12:50:43;;;;;;;24.27;16.85;;;14.10;99.90;;;;;;5033112;28;20111;-74
2022/03/16 12:53:09;;;;;;;22.08;15.63;;;14.10;99.90;;;;;;5049986;28;20708;-74
2022/03/16 12:55:35;;;;;;;23.27;15.23;;;14.00;99.90;;;;;;5023668;28;20203;-74
2022/03/16 12:58:00;;;;;;;25.50;16.70;;;14.10;99.90;;;;;;5029647;28;20385;-74
2022/03/16 13:00:32;;;;;;;23.10;16.42;;;14.10;99.90;;;;;;5040388;28;20104;-75
2022/03/16 13:03:17;;;;;;;26.95;17.63;;;14.10;99.90;;;;;;5033371;28;20288;-74
2022/03/16 13:05:43;;;;;;;24.95;16.90;;;14.20;99.90;;;;;;5035976;28;20049;-74
2022/03/16 13:08:09;;;;;;;28.33;17.50;;;14.20;99.90;;;;;;5037134;28;20048;-74
2022/03/16 13:11:14;;;;;;;24.90;16.90;;;13.90;99.90;;;;;;5036189;28;20506;-75
2022/03/16 13:13:22;;;;;;;25.02;16.92;;;13.70;99.90;;;;;;5058051;28;20036;-74
2022/03/16 13:15:50;;;;;;;22.27;16.02;;;13.60;99.90;;;;;;5037677;28;20037;-74
2022/03/16 13:18:35;;;;;;;23.77;17.05;;;13.60;99.90;;;;;;5037945;28;20108;-75
2022/03/16 13:21:21;;;;;;;22.85;16.00;;;13.60;99.90;;;;;;5034002;28;20064;-75
2022/03/16 13:23:46;;;;;;;24.17;17.15;;;13.70;99.90;;;;;;5040471;28;20040;-75
2022/03/16 13:26:12;;;;;;;23.70;17.17;;;13.80;99.90;;;;;;5031467;28;20041;-77
2022/03/16 13:28:40;;;;;;;28.40;17.73;;;13.80;99.90;;;;;;5049228;28;21232;-77
2022/03/16 13:31:06;;;;;;;23.85;16.17;;;13.70;99.90;;;;;;5048205;28;20033;-76
2022/03/16 13:33:32;;;;;;;22.30;16.63;;;13.60;99.90;;;;;;5044290;28;20508;-75
2022/03/16 13:36:12;;;;;;;24.70;17.00;;;13.60;99.90;;;;;;5041668;28;20033;-75
2022/03/16 13:38:38;;;;;;;23.60;16.77;;;13.50;99.90;;;;;;5048630;28;20401;-75
2022/03/16 13:41:11;;;;;;;24.48;17.10;;;13.50;99.90;;;;;;5043451;28;20026;-75
2022/03/16 13:43:38;;;;;;;23.50;16.42;;;13.60;99.90;;;;;;5041746;28;20030;-74
2022/03/16 13:46:09;;;;;;;22.25;16.95;;;13.70;99.90;;;;;;5039666;28;20420;-80
2022/03/16 13:48:39;;;;;;;23.52;16.75;;;13.80;99.90;;;;;;5048156;28;20500;-79
2022/03/16 13:51:08;;;;;;;25.15;17.40;;;13.90;99.90;;;;;;5039578;28;20551;-81
2022/03/16 13:53:43;;;;;;;26.48;17.48;;;14.00;99.90;;;;;;4689830;28;10000313;-82
2022/03/16 13:56:26;;;;;;;24.48;17.17;;;14.10;99.90;;;;;;5045045;28;20396;-80
2022/03/16 13:58:55;;;;;;;27.20;17.70;;;14.10;99.90;;;;;;5036137;28;20025;-83
2022/03/16 14:01:22;;;;;;;19.75;15.40;;;14.20;99.90;;;;;;5036773;28;20483;-80
2022/03/16 14:03:48;;;;;;;24.33;17.23;;;14.10;99.90;;;;;;5030953;28;20045;-80
2022/03/16 14:06:15;;;;;;;23.65;16.90;;;14.00;99.90;;;;;;5040389;28;20064;-77
2022/03/16 14:08:41;;;;;;;24.33;16.83;;;13.90;99.90;;;;;;5031936;28;20551;-79
2022/03/16 14:11:06;;;;;;;22.15;16.83;;;13.80;99.90;;;;;;5033635;28;20488;-82